createdAt,value
2018-01-21T00:00:43.224Z,0.00
2018-01-21T00:01:43.137Z,0.00
2018-01-21T00:02:43.176Z,0.00
2018-01-21T00:03:43.081Z,0.00
2018-01-21T00:04:43.126Z,0.00
2018-01-21T00:05:44.901Z,0.00
2018-01-21T00:06:43.043Z,0.00
2018-01-21T00:07:42.942Z,0.00
2018-01-21T00:08:42.988Z,0.00
2018-01-21T00:09:42.884Z,0.00
2018-01-21T00:10:42.902Z,0.00
2018-01-21T00:11:42.828Z,0.00
2018-01-21T00:12:42.853Z,0.00
2018-01-21T00:13:44.394Z,0.00
2018-01-21T00:14:42.827Z,0.00
2018-01-21T00:15:42.701Z,0.00
2018-01-21T00:16:42.707Z,0.00
2018-01-21T00:17:42.647Z,0.00
2018-01-21T00:18:42.685Z,0.00
2018-01-21T00:19:45.392Z,0.00
2018-01-21T00:20:44.418Z,0.00
2018-01-21T00:21:42.503Z,0.00
2018-01-21T00:22:42.470Z,0.00
2018-01-21T00:23:42.447Z,0.00
2018-01-21T00:24:42.408Z,0.00
2018-01-21T00:25:42.372Z,0.00
2018-01-21T00:26:42.361Z,0.00
2018-01-21T00:27:42.309Z,0.00
2018-01-21T00:28:42.278Z,0.00
2018-01-21T00:29:42.258Z,0.00
2018-01-21T00:30:42.221Z,0.00
2018-01-21T00:31:42.188Z,0.00
2018-01-21T00:32:42.177Z,0.00
2018-01-21T00:33:42.126Z,0.00
2018-01-21T00:34:42.093Z,0.00
2018-01-21T00:35:42.104Z,0.00
2018-01-21T00:36:42.031Z,0.00
2018-01-21T00:37:41.996Z,0.00
2018-01-21T00:38:41.984Z,0.00
2018-01-21T00:39:41.927Z,0.00
2018-01-21T00:40:41.899Z,0.00
2018-01-21T00:41:41.886Z,0.00
2018-01-21T00:42:41.834Z,0.00
2018-01-21T00:43:41.809Z,0.00
2018-01-21T00:44:41.775Z,0.00
2018-01-21T00:45:41.821Z,0.00
2018-01-21T00:46:41.706Z,0.00
2018-01-21T00:47:43.396Z,0.00
2018-01-21T00:48:41.643Z,0.00
2018-01-21T00:49:41.610Z,0.00
2018-01-21T00:50:41.584Z,0.00
2018-01-21T00:51:41.550Z,0.00
2018-01-21T00:52:41.519Z,0.00
2018-01-21T00:53:41.489Z,0.00
2018-01-21T00:54:41.456Z,0.00
2018-01-21T00:55:41.425Z,0.00
2018-01-21T00:56:41.421Z,0.00
2018-01-21T00:57:41.365Z,0.00
2018-01-21T00:58:41.334Z,0.00
2018-01-21T00:59:41.320Z,0.00
2018-01-21T01:00:41.266Z,0.00
2018-01-21T01:01:41.260Z,0.00
2018-01-21T01:02:41.204Z,0.00
2018-01-21T01:03:41.172Z,0.00
2018-01-21T01:04:41.134Z,0.00
2018-01-21T01:05:41.166Z,0.00
2018-01-21T01:06:41.073Z,0.00
2018-01-21T01:07:41.039Z,0.00
2018-01-21T01:08:41.013Z,0.00
2018-01-21T01:09:40.976Z,0.00
2018-01-21T01:10:40.950Z,0.00
2018-01-21T01:11:40.923Z,0.00
2018-01-21T01:12:40.885Z,0.00
2018-01-21T01:13:40.867Z,0.00
2018-01-21T01:14:40.821Z,0.00
2018-01-21T01:15:40.798Z,0.00
2018-01-21T01:16:40.760Z,0.00
2018-01-21T01:17:40.775Z,0.00
2018-01-21T01:18:40.691Z,0.00
2018-01-21T01:19:40.658Z,0.00
2018-01-21T01:20:40.627Z,0.00
2018-01-21T01:21:40.595Z,0.00
2018-01-21T01:22:40.575Z,0.00
2018-01-21T01:23:40.534Z,0.00
2018-01-21T01:24:40.500Z,0.00
2018-01-21T01:25:40.474Z,0.00
2018-01-21T01:26:40.449Z,0.00
2018-01-21T01:27:40.422Z,0.00
2018-01-21T01:28:40.380Z,0.00
2018-01-21T01:29:40.348Z,0.00
2018-01-21T01:30:40.317Z,0.00
2018-01-21T01:31:40.299Z,0.00
2018-01-21T01:32:40.258Z,0.00
2018-01-21T01:33:40.221Z,0.00
2018-01-21T01:34:40.195Z,0.00
2018-01-21T01:35:40.162Z,0.00
2018-01-21T01:36:40.154Z,0.00
2018-01-21T01:37:40.092Z,0.00
2018-01-21T01:38:40.145Z,0.00
2018-01-21T01:39:40.034Z,0.00
2018-01-21T01:40:40.062Z,0.00
2018-01-21T01:41:39.962Z,0.00
2018-01-21T01:42:41.962Z,0.00
2018-01-21T01:43:41.402Z,0.00
2018-01-21T01:44:39.900Z,0.00
2018-01-21T01:45:39.837Z,0.00
2018-01-21T01:46:40.430Z,0.00
2018-01-21T01:47:39.770Z,0.00
2018-01-21T01:48:41.450Z,0.00
2018-01-21T01:49:39.706Z,0.00
2018-01-21T01:50:39.739Z,0.00
2018-01-21T01:51:39.650Z,0.00
2018-01-21T01:52:39.709Z,0.00
2018-01-21T01:53:42.410Z,0.00
2018-01-21T01:54:39.678Z,0.00
2018-01-21T01:55:39.522Z,0.00
2018-01-21T01:56:39.512Z,0.00
2018-01-21T01:57:39.456Z,0.00
2018-01-21T01:58:39.420Z,0.00
2018-01-21T01:59:39.390Z,0.00
2018-01-21T02:00:39.445Z,0.00
2018-01-21T02:01:39.322Z,0.00
2018-01-21T02:02:39.337Z,0.00
2018-01-21T02:03:39.259Z,0.00
2018-01-21T02:04:39.289Z,0.00
2018-01-21T02:05:39.195Z,0.00
2018-01-21T02:06:39.289Z,0.00
2018-01-21T02:07:39.138Z,0.00
2018-01-21T02:08:39.215Z,0.00
2018-01-21T02:09:39.074Z,0.00
2018-01-21T02:10:39.120Z,0.00
2018-01-21T02:11:39.018Z,0.00
2018-01-21T02:12:42.962Z,0.00
2018-01-21T02:13:38.949Z,0.00
2018-01-21T02:14:38.955Z,0.00
2018-01-21T02:15:38.876Z,0.00
2018-01-21T02:16:38.945Z,0.00
2018-01-21T02:17:38.819Z,0.00
2018-01-21T02:18:38.828Z,0.00
2018-01-21T02:19:38.747Z,0.00
2018-01-21T02:20:40.400Z,0.00
2018-01-21T02:21:38.703Z,0.00
2018-01-21T02:22:38.658Z,0.00
2018-01-21T02:23:38.642Z,0.00
2018-01-21T02:24:38.591Z,0.00
2018-01-21T02:25:38.560Z,0.00
2018-01-21T02:26:38.532Z,0.00
2018-01-21T02:27:40.450Z,0.00
2018-01-21T02:28:38.469Z,0.00
2018-01-21T02:29:38.438Z,0.00
2018-01-21T02:30:38.398Z,0.00
2018-01-21T02:31:38.363Z,0.00
2018-01-21T02:32:38.333Z,0.00
2018-01-21T02:33:38.300Z,0.00
2018-01-21T02:34:38.263Z,0.00
2018-01-21T02:35:38.230Z,0.00
2018-01-21T02:36:38.200Z,0.00
2018-01-21T02:37:38.170Z,0.00
2018-01-21T02:38:38.199Z,0.00
2018-01-21T02:39:38.108Z,0.00
2018-01-21T02:40:38.080Z,0.00
2018-01-21T02:41:38.043Z,0.00
2018-01-21T02:42:38.016Z,0.00
2018-01-21T02:43:37.985Z,0.00
2018-01-21T02:44:38.110Z,0.00
2018-01-21T02:45:37.910Z,0.00
2018-01-21T02:46:37.876Z,0.00
2018-01-21T02:47:37.848Z,0.00
2018-01-21T02:48:37.819Z,0.00
2018-01-21T02:49:39.222Z,0.00
2018-01-21T02:50:37.781Z,0.00
2018-01-21T02:51:37.825Z,0.00
2018-01-21T02:52:37.684Z,0.00
2018-01-21T02:53:37.679Z,0.00
2018-01-21T02:54:37.617Z,0.00
2018-01-21T02:55:37.607Z,0.00
2018-01-21T02:56:37.553Z,0.00
2018-01-21T02:57:37.586Z,0.00
2018-01-21T02:58:37.484Z,0.00
2018-01-21T02:59:37.508Z,0.00
2018-01-21T03:00:37.421Z,0.00
2018-01-21T03:01:39.936Z,0.00
2018-01-21T03:02:37.358Z,0.00
2018-01-21T03:03:37.384Z,0.00
2018-01-21T03:04:37.305Z,0.00
2018-01-21T03:05:37.302Z,0.00
2018-01-21T03:06:37.226Z,0.00
2018-01-21T03:07:37.280Z,0.00
2018-01-21T03:08:37.163Z,0.00
2018-01-21T03:09:37.138Z,0.00
2018-01-21T03:10:37.109Z,0.00
2018-01-21T03:11:37.066Z,0.00
2018-01-21T03:12:37.032Z,0.00
2018-01-21T03:13:37.016Z,0.00
2018-01-21T03:14:37.920Z,0.00
2018-01-21T03:15:36.931Z,0.00
2018-01-21T03:16:36.904Z,0.00
2018-01-21T03:17:36.872Z,0.00
2018-01-21T03:18:36.834Z,0.00
2018-01-21T03:19:36.802Z,0.00
2018-01-21T03:20:36.770Z,0.00
2018-01-21T03:21:39.136Z,0.00
2018-01-21T03:22:36.711Z,0.00
2018-01-21T03:23:36.674Z,0.00
2018-01-21T03:24:36.641Z,0.00
2018-01-21T03:25:36.617Z,0.00
2018-01-21T03:26:36.569Z,0.00
2018-01-21T03:27:36.536Z,0.00
2018-01-21T03:28:36.524Z,0.00
2018-01-21T03:29:36.474Z,0.00
2018-01-21T03:30:38.408Z,0.00
2018-01-21T03:31:37.905Z,0.00
2018-01-21T03:32:36.385Z,0.00
2018-01-21T03:33:36.351Z,0.00
2018-01-21T03:34:36.337Z,0.00
2018-01-21T03:35:36.291Z,0.00
2018-01-21T03:36:36.250Z,0.00
2018-01-21T03:37:36.271Z,0.00
2018-01-21T03:38:36.184Z,0.00
2018-01-21T03:39:36.151Z,0.00
2018-01-21T03:40:36.127Z,0.00
2018-01-21T03:41:36.084Z,0.00
2018-01-21T03:42:36.048Z,0.00
2018-01-21T03:43:36.024Z,0.00
2018-01-21T03:44:36.005Z,0.00
2018-01-21T03:45:35.957Z,0.00
2018-01-21T03:46:35.938Z,0.00
2018-01-21T03:47:35.891Z,0.00
2018-01-21T03:48:35.859Z,0.00
2018-01-21T03:49:35.844Z,0.00
2018-01-21T03:50:35.789Z,0.00
2018-01-21T03:51:35.760Z,0.00
2018-01-21T03:52:35.741Z,0.00
2018-01-21T03:53:35.693Z,0.00
2018-01-21T03:54:35.659Z,0.00
2018-01-21T03:55:35.623Z,0.00
2018-01-21T03:56:35.590Z,0.00
2018-01-21T03:57:37.406Z,0.00
2018-01-21T03:58:35.580Z,0.00
2018-01-21T03:59:35.500Z,0.00
2018-01-21T04:00:35.465Z,0.00
2018-01-21T04:01:35.433Z,0.00
2018-01-21T04:02:35.410Z,0.00
2018-01-21T04:03:35.371Z,0.00
2018-01-21T04:04:35.342Z,0.00
2018-01-21T04:05:35.305Z,0.00
2018-01-21T04:06:35.264Z,0.00
2018-01-21T04:07:35.232Z,0.00
2018-01-21T04:08:35.205Z,0.00
2018-01-21T04:09:35.169Z,0.00
2018-01-21T04:10:35.136Z,0.00
2018-01-21T04:11:35.103Z,0.00
2018-01-21T04:12:35.077Z,0.00
2018-01-21T04:13:35.039Z,0.00
2018-01-21T04:14:35.007Z,0.00
2018-01-21T04:15:34.974Z,0.00
2018-01-21T04:16:34.942Z,0.00
2018-01-21T04:17:34.913Z,0.00
2018-01-21T04:18:34.885Z,0.00
2018-01-21T04:19:34.847Z,0.00
2018-01-21T04:20:34.817Z,0.00
2018-01-21T04:21:34.782Z,0.00
2018-01-21T04:22:34.742Z,0.00
2018-01-21T04:23:34.716Z,0.00
2018-01-21T04:24:34.682Z,0.00
2018-01-21T04:25:34.647Z,0.00
2018-01-21T04:26:34.612Z,0.00
2018-01-21T04:27:34.588Z,0.00
2018-01-21T04:28:34.549Z,0.00
2018-01-21T04:29:34.525Z,0.00
2018-01-21T04:30:34.487Z,0.00
2018-01-21T04:31:34.461Z,0.00
2018-01-21T04:32:34.420Z,0.00
2018-01-21T04:33:34.391Z,0.00
2018-01-21T04:34:34.355Z,0.00
2018-01-21T04:35:34.322Z,0.00
2018-01-21T04:36:34.292Z,0.00
2018-01-21T04:37:34.259Z,0.00
2018-01-21T04:38:34.224Z,0.00
2018-01-21T04:39:34.190Z,0.00
2018-01-21T04:40:34.154Z,0.00
2018-01-21T04:41:34.123Z,0.00
2018-01-21T04:42:34.092Z,0.00
2018-01-21T04:43:34.057Z,0.00
2018-01-21T04:44:34.023Z,0.00
2018-01-21T04:45:33.990Z,0.00
2018-01-21T04:46:33.961Z,0.00
2018-01-21T04:47:33.931Z,0.00
2018-01-21T04:48:33.903Z,0.00
2018-01-21T04:49:33.872Z,0.00
2018-01-21T04:50:33.834Z,0.00
2018-01-21T04:51:33.797Z,0.00
2018-01-21T04:52:33.765Z,0.00
2018-01-21T04:53:35.413Z,0.00
2018-01-21T04:54:33.702Z,0.00
2018-01-21T04:55:33.663Z,0.00
2018-01-21T04:56:33.633Z,0.00
2018-01-21T04:57:33.609Z,0.00
2018-01-21T04:58:33.561Z,0.00
2018-01-21T04:59:33.529Z,0.00
2018-01-21T05:00:33.498Z,0.00
2018-01-21T05:01:33.470Z,0.00
2018-01-21T05:02:33.450Z,0.00
2018-01-21T05:03:33.406Z,0.00
2018-01-21T05:04:33.371Z,0.00
2018-01-21T05:05:34.924Z,0.00
2018-01-21T05:06:33.339Z,0.00
2018-01-21T05:07:33.281Z,0.00
2018-01-21T05:08:33.245Z,0.00
2018-01-21T05:09:33.212Z,0.00
2018-01-21T05:10:33.184Z,0.00
2018-01-21T05:11:33.136Z,0.00
2018-01-21T05:12:33.107Z,0.00
2018-01-21T05:13:33.069Z,0.00
2018-01-21T05:14:33.034Z,0.00
2018-01-21T05:15:33.005Z,0.00
2018-01-21T05:16:32.974Z,0.00
2018-01-21T05:17:32.941Z,0.00
2018-01-21T05:18:34.415Z,0.00
2018-01-21T05:19:32.881Z,0.00
2018-01-21T05:20:32.849Z,0.00
2018-01-21T05:21:32.817Z,0.00
2018-01-21T05:22:32.787Z,0.00
2018-01-21T05:23:32.747Z,0.00
2018-01-21T05:24:32.711Z,0.00
2018-01-21T05:25:32.680Z,0.00
2018-01-21T05:26:32.644Z,0.00
2018-01-21T05:27:32.614Z,0.00
2018-01-21T05:28:32.600Z,0.00
2018-01-21T05:29:34.413Z,0.00
2018-01-21T05:30:32.509Z,0.00
2018-01-21T05:31:32.477Z,0.00
2018-01-21T05:32:32.444Z,0.00
2018-01-21T05:33:32.437Z,0.00
2018-01-21T05:34:32.386Z,0.00
2018-01-21T05:35:32.361Z,0.00
2018-01-21T05:36:32.322Z,0.00
2018-01-21T05:37:32.286Z,0.00
2018-01-21T05:38:32.250Z,0.00
2018-01-21T05:39:32.226Z,0.00
2018-01-21T05:40:32.210Z,0.00
2018-01-21T05:41:32.182Z,0.00
2018-01-21T05:42:32.119Z,0.00
2018-01-21T05:43:32.083Z,0.00
2018-01-21T05:44:32.052Z,0.00
2018-01-21T05:45:32.018Z,0.00
2018-01-21T05:46:33.914Z,0.00
2018-01-21T05:47:31.952Z,0.00
2018-01-21T05:48:31.922Z,0.00
2018-01-21T05:49:31.888Z,0.00
2018-01-21T05:50:34.427Z,0.00
2018-01-21T05:51:31.832Z,0.00
2018-01-21T05:52:31.797Z,0.00
2018-01-21T05:53:31.767Z,0.00
2018-01-21T05:54:31.733Z,0.00
2018-01-21T05:55:33.427Z,0.00
2018-01-21T05:56:31.699Z,0.00
2018-01-21T05:57:31.635Z,0.00
2018-01-21T05:58:33.415Z,0.00
2018-01-21T05:59:31.562Z,0.00
2018-01-21T06:00:31.536Z,0.00
2018-01-21T06:01:31.496Z,0.00
2018-01-21T06:02:33.419Z,0.00
2018-01-21T06:03:31.438Z,0.00
2018-01-21T06:04:31.412Z,0.00
2018-01-21T06:05:32.921Z,0.00
2018-01-21T06:06:31.333Z,0.00
2018-01-21T06:07:31.303Z,0.00
2018-01-21T06:08:31.272Z,0.00
2018-01-21T06:09:31.240Z,0.00
2018-01-21T06:10:31.201Z,0.00
2018-01-21T06:11:31.170Z,0.00
2018-01-21T06:12:31.164Z,0.00
2018-01-21T06:13:31.109Z,0.00
2018-01-21T06:14:31.083Z,0.00
2018-01-21T06:15:31.074Z,0.00
2018-01-21T06:16:31.020Z,0.00
2018-01-21T06:17:31.010Z,0.00
2018-01-21T06:18:30.947Z,0.00
2018-01-21T06:19:30.920Z,0.00
2018-01-21T06:20:30.917Z,0.00
2018-01-21T06:21:30.856Z,0.00
2018-01-21T06:22:30.812Z,0.00
2018-01-21T06:23:33.417Z,0.00
2018-01-21T06:24:30.748Z,0.00
2018-01-21T06:25:30.725Z,0.00
2018-01-21T06:26:30.693Z,0.00
2018-01-21T06:27:30.656Z,0.00
2018-01-21T06:28:30.621Z,0.00
2018-01-21T06:29:30.588Z,0.00
2018-01-21T06:30:30.562Z,0.00
2018-01-21T06:31:30.531Z,0.00
2018-01-21T06:32:30.495Z,0.00
2018-01-21T06:33:32.429Z,0.00
2018-01-21T06:34:31.923Z,0.00
2018-01-21T06:35:30.399Z,0.00
2018-01-21T06:36:30.363Z,0.00
2018-01-21T06:37:30.330Z,0.00
2018-01-21T06:38:30.318Z,0.00
2018-01-21T06:39:30.265Z,0.00
2018-01-21T06:40:30.234Z,0.00
2018-01-21T06:41:30.205Z,0.00
2018-01-21T06:42:31.918Z,0.00
2018-01-21T06:43:30.132Z,0.00
2018-01-21T06:44:30.102Z,0.00
2018-01-21T06:45:30.076Z,0.00
2018-01-21T06:46:30.037Z,0.00
2018-01-21T06:47:30.019Z,0.00
2018-01-21T06:48:29.975Z,0.00
2018-01-21T06:49:29.945Z,0.00
2018-01-21T06:50:29.932Z,0.00
2018-01-21T06:51:29.876Z,0.00
2018-01-21T06:52:29.848Z,0.00
2018-01-21T06:53:29.835Z,0.00
2018-01-21T06:54:29.775Z,4.00
2018-01-21T06:55:29.746Z,4.00
2018-01-21T06:56:29.734Z,0.00
2018-01-21T06:57:29.679Z,4.00
2018-01-21T06:58:29.650Z,4.00
2018-01-21T06:59:29.622Z,4.00
2018-01-21T07:00:29.585Z,4.00
2018-01-21T07:01:29.556Z,8.00
2018-01-21T07:02:30.432Z,8.00
2018-01-21T07:03:29.491Z,8.00
2018-01-21T07:04:29.456Z,8.00
2018-01-21T07:05:29.429Z,12.00
2018-01-21T07:06:29.383Z,16.00
2018-01-21T07:07:29.356Z,16.00
2018-01-21T07:08:29.331Z,20.00
2018-01-21T07:09:29.288Z,24.00
2018-01-21T07:10:29.266Z,28.00
2018-01-21T07:11:29.239Z,32.00
2018-01-21T07:12:29.204Z,36.00
2018-01-21T07:13:29.160Z,40.00
2018-01-21T07:14:29.144Z,48.00
2018-01-21T07:15:29.097Z,48.00
2018-01-21T07:16:29.065Z,56.00
2018-01-21T07:17:29.041Z,60.00
2018-01-21T07:18:29.019Z,72.00
2018-01-21T07:19:28.961Z,84.00
2018-01-21T07:20:28.956Z,92.00
2018-01-21T07:21:28.901Z,100.00
2018-01-21T07:22:28.864Z,116.00
2018-01-21T07:23:28.833Z,124.00
2018-01-21T07:24:28.797Z,136.00
2018-01-21T07:25:28.768Z,140.00
2018-01-21T07:26:28.749Z,148.00
2018-01-21T07:27:28.702Z,156.00
2018-01-21T07:28:28.672Z,168.00
2018-01-21T07:29:28.656Z,188.00
2018-01-21T07:30:28.608Z,204.00
2018-01-21T07:31:28.576Z,204.00
2018-01-21T07:32:28.562Z,212.00
2018-01-21T07:33:30.423Z,224.00
2018-01-21T07:34:28.472Z,232.00
2018-01-21T07:35:28.457Z,248.00
2018-01-21T07:36:28.406Z,280.00
2018-01-21T07:37:29.925Z,308.00
2018-01-21T07:38:28.347Z,320.00
2018-01-21T07:39:28.307Z,344.00
2018-01-21T07:40:28.286Z,360.00
2018-01-21T07:41:28.272Z,376.00
2018-01-21T07:42:28.215Z,420.00
2018-01-21T07:43:28.181Z,440.00
2018-01-21T07:44:28.162Z,448.00
2018-01-21T07:45:28.123Z,464.00
2018-01-21T07:46:28.087Z,456.00
2018-01-21T07:47:28.059Z,436.00
2018-01-21T07:48:28.027Z,428.00
2018-01-21T07:49:27.988Z,416.00
2018-01-21T07:50:27.948Z,408.00
2018-01-21T07:51:27.935Z,416.00
2018-01-21T07:52:27.886Z,428.00
2018-01-21T07:53:27.850Z,440.00
2018-01-21T07:54:27.820Z,464.00
2018-01-21T07:55:27.795Z,500.00
2018-01-21T07:56:27.761Z,528.00
2018-01-21T07:57:27.723Z,544.00
2018-01-21T07:58:27.692Z,556.00
2018-01-21T07:59:30.427Z,576.00
2018-01-21T08:00:27.636Z,608.00
2018-01-21T08:01:27.598Z,608.00
2018-01-21T08:02:27.569Z,604.00
2018-01-21T08:03:27.531Z,604.00
2018-01-21T08:04:29.440Z,612.00
2018-01-21T08:05:27.466Z,628.00
2018-01-21T08:06:27.433Z,624.00
2018-01-21T08:07:27.398Z,620.00
2018-01-21T08:08:28.943Z,644.00
2018-01-21T08:09:27.333Z,696.00
2018-01-21T08:10:28.928Z,728.00
2018-01-21T08:11:28.937Z,736.00
2018-01-21T08:12:27.240Z,788.00
2018-01-21T08:13:27.216Z,868.00
2018-01-21T08:14:27.171Z,916.00
2018-01-21T08:15:27.140Z,984.00
2018-01-21T08:16:27.105Z,996.00
2018-01-21T08:17:27.078Z,972.00
2018-01-21T08:18:27.038Z,888.00
2018-01-21T08:19:27.009Z,872.00
2018-01-21T08:20:26.976Z,888.00
2018-01-21T08:21:27.961Z,900.00
2018-01-21T08:22:26.915Z,920.00
2018-01-21T08:23:26.901Z,884.00
2018-01-21T08:24:26.872Z,912.00
2018-01-21T08:25:26.820Z,1028.00
2018-01-21T08:26:26.791Z,1128.00
2018-01-21T08:27:26.759Z,1144.00
2018-01-21T08:28:26.743Z,1060.00
2018-01-21T08:29:26.687Z,1024.00
2018-01-21T08:30:26.655Z,1016.00
2018-01-21T08:31:29.431Z,1072.00
2018-01-21T08:32:26.590Z,1164.00
2018-01-21T08:33:26.558Z,1220.00
2018-01-21T08:34:26.830Z,1320.00
2018-01-21T08:35:26.493Z,1432.00
2018-01-21T08:36:26.462Z,1520.00
2018-01-21T08:37:26.424Z,1528.00
2018-01-21T08:38:26.396Z,1508.00
2018-01-21T08:39:26.398Z,1524.00
2018-01-21T08:40:26.343Z,1496.00
2018-01-21T08:41:26.300Z,1408.00
2018-01-21T08:42:26.269Z,1316.00
2018-01-21T08:43:27.930Z,1268.00
2018-01-21T08:44:26.224Z,1200.00
2018-01-21T08:45:26.175Z,1304.00
2018-01-21T08:46:26.141Z,1304.00
2018-01-21T08:47:27.948Z,1388.00
2018-01-21T08:48:27.928Z,1412.00
2018-01-21T08:49:28.983Z,1356.00
2018-01-21T08:50:26.244Z,1388.00
2018-01-21T08:51:25.974Z,1516.00
2018-01-21T08:52:25.968Z,1812.00
2018-01-21T08:53:27.448Z,1916.00
2018-01-21T08:54:25.892Z,1904.00
2018-01-21T08:55:25.919Z,1940.00
2018-01-21T08:56:25.821Z,1924.00
2018-01-21T08:57:25.806Z,1916.00
2018-01-21T08:58:25.755Z,1960.00
2018-01-21T08:59:25.726Z,2084.00
2018-01-21T09:00:27.447Z,2180.00
2018-01-21T09:01:25.665Z,2128.00
2018-01-21T09:02:25.623Z,2000.00
2018-01-21T09:03:27.429Z,1932.00
2018-01-21T09:04:25.561Z,1824.00
2018-01-21T09:05:25.531Z,1472.00
2018-01-21T09:06:27.430Z,1184.00
2018-01-21T09:07:27.441Z,1168.00
2018-01-21T09:08:25.441Z,1328.00
2018-01-21T09:09:25.423Z,1604.00
2018-01-21T09:10:25.374Z,1900.00
2018-01-21T09:12:51.350Z,2028.00
2018-01-21T09:13:51.259Z,2180.00
2018-01-21T09:16:01.602Z,1788.00
2018-01-21T09:17:01.560Z,1904.00
2018-01-21T09:19:14.535Z,2192.00
2018-01-21T09:20:14.394Z,2220.00
2018-01-21T09:22:24.711Z,1832.00
2018-01-21T09:23:24.721Z,1564.00
2018-01-21T09:25:27.519Z,1696.00
2018-01-21T09:26:27.490Z,1880.00
2018-01-21T09:28:25.329Z,1936.00
2018-01-21T09:29:25.248Z,2040.00
2018-01-21T09:31:29.632Z,2488.00
2018-01-21T09:32:29.561Z,2672.00
2018-01-21T09:34:39.933Z,2756.00
2018-01-21T09:35:39.864Z,2876.00
2018-01-21T09:37:42.715Z,2760.00
2018-01-21T09:38:42.642Z,2960.00
2018-01-21T09:40:47.033Z,2736.00
2018-01-21T09:41:47.014Z,2656.00
2018-01-21T09:43:59.829Z,2440.00
2018-01-21T09:44:59.782Z,2596.00
2018-01-21T09:46:55.659Z,2928.00
2018-01-21T09:47:55.550Z,2924.00
2018-01-21T09:50:08.446Z,3008.00
2018-01-21T09:51:08.384Z,3040.00
2018-01-21T09:53:14.465Z,3488.00
2018-01-21T09:54:14.202Z,3424.00
2018-01-21T09:56:08.529Z,3380.00
2018-01-21T09:57:08.598Z,3416.00
2018-01-21T09:59:10.064Z,3476.00
2018-01-21T10:00:11.519Z,3472.00
2018-01-21T10:01:09.940Z,3452.00
2018-01-21T10:02:09.908Z,3536.00
2018-01-21T10:03:11.380Z,3704.00
2018-01-21T10:04:09.849Z,3892.00
2018-01-21T10:05:09.818Z,3972.00
2018-01-21T10:06:11.391Z,3816.00
2018-01-21T10:07:11.380Z,3716.00
2018-01-21T10:08:09.726Z,3708.00
2018-01-21T10:09:09.689Z,3656.00
2018-01-21T10:10:09.923Z,3488.00
2018-01-21T10:11:09.635Z,3452.00
2018-01-21T10:12:09.637Z,3472.00
2018-01-21T10:13:09.564Z,3216.00
2018-01-21T10:14:09.536Z,3348.00
2018-01-21T10:15:09.616Z,3432.00
2018-01-21T10:16:09.468Z,3532.00
2018-01-21T10:17:09.454Z,3636.00
2018-01-21T10:18:09.407Z,3788.00
2018-01-21T10:19:09.386Z,3916.00
2018-01-21T10:20:09.351Z,3988.00
2018-01-21T10:21:09.316Z,4048.00
2018-01-21T10:22:09.290Z,4080.00
2018-01-21T10:23:09.326Z,4200.00
2018-01-21T10:24:09.354Z,4368.00
2018-01-21T10:25:09.276Z,4716.00
2018-01-21T10:26:09.261Z,5276.00
2018-01-21T10:27:09.188Z,5404.00
2018-01-21T10:28:09.121Z,4836.00
2018-01-21T10:29:09.150Z,4896.00
2018-01-21T10:30:09.114Z,5268.00
2018-01-21T10:31:09.028Z,5372.00
2018-01-21T10:32:09.029Z,5192.00
2018-01-21T10:33:09.039Z,4820.00
2018-01-21T10:34:08.908Z,3948.00
2018-01-21T10:35:08.990Z,3392.00
2018-01-21T10:36:08.874Z,3536.00
2018-01-21T10:37:08.950Z,4004.00
2018-01-21T10:38:08.876Z,4280.00
2018-01-21T10:39:08.768Z,4312.00
2018-01-21T10:40:08.745Z,4232.00
2018-01-21T10:41:08.708Z,4408.00
2018-01-21T10:42:08.806Z,4788.00
2018-01-21T10:43:08.778Z,4968.00
2018-01-21T10:44:08.611Z,4952.00
2018-01-21T10:45:08.571Z,4664.00
2018-01-21T10:46:08.541Z,4544.00
2018-01-21T10:47:08.561Z,4880.00
2018-01-21T10:48:08.677Z,5424.00
2018-01-21T10:49:08.483Z,5948.00
2018-01-21T10:50:08.469Z,5792.00
2018-01-21T10:51:08.589Z,6072.00
2018-01-21T10:52:08.477Z,5768.00
2018-01-21T10:53:08.396Z,5664.00
2018-01-21T10:54:08.379Z,5468.00
2018-01-21T10:55:08.377Z,5216.00
2018-01-21T10:56:10.043Z,5112.00
2018-01-21T10:57:08.274Z,4516.00
2018-01-21T10:58:08.218Z,3748.00
2018-01-21T10:59:08.146Z,3528.00
2018-01-21T11:00:08.191Z,3372.00
2018-01-21T11:01:08.191Z,3444.00
2018-01-21T11:02:08.049Z,3668.00
2018-01-21T11:03:08.034Z,4144.00
2018-01-21T11:04:07.991Z,4432.00
2018-01-21T11:05:07.962Z,4948.00
2018-01-21T11:06:09.886Z,5756.00
2018-01-21T11:07:07.935Z,6736.00
2018-01-21T11:08:07.868Z,7072.00
2018-01-21T11:09:07.842Z,6796.00
2018-01-21T11:10:07.807Z,6724.00
2018-01-21T11:11:07.790Z,6052.00
2018-01-21T11:12:07.753Z,5984.00
2018-01-21T11:13:07.720Z,5620.00
2018-01-21T11:14:07.691Z,5388.00
2018-01-21T11:15:07.656Z,5416.00
2018-01-21T11:16:07.620Z,5520.00
2018-01-21T11:17:07.593Z,5612.00
2018-01-21T11:18:07.562Z,5812.00
2018-01-21T11:19:07.548Z,6004.00
2018-01-21T11:20:07.500Z,6060.00
2018-01-21T11:21:07.471Z,6056.00
2018-01-21T11:22:07.441Z,5856.00
2018-01-21T11:23:07.411Z,5764.00
2018-01-21T11:24:07.391Z,5652.00
2018-01-21T11:25:07.521Z,5500.00
2018-01-21T11:26:09.894Z,5084.00
2018-01-21T11:27:07.294Z,4576.00
2018-01-21T11:28:07.262Z,4352.00
2018-01-21T11:29:07.235Z,4204.00
2018-01-21T11:30:07.202Z,4064.00
2018-01-21T11:31:07.170Z,3952.00
2018-01-21T11:32:07.143Z,3984.00
2018-01-21T11:33:07.118Z,4248.00
2018-01-21T11:34:07.082Z,4576.00
2018-01-21T11:35:07.104Z,4880.00
2018-01-21T11:36:07.026Z,5008.00
2018-01-21T11:37:06.995Z,5228.00
2018-01-21T11:38:06.965Z,5352.00
2018-01-21T11:39:06.939Z,5468.00
2018-01-21T11:40:06.911Z,5516.00
2018-01-21T11:41:06.871Z,5648.00
2018-01-21T11:42:06.842Z,5624.00
2018-01-21T11:43:06.812Z,5580.00
2018-01-21T11:44:06.780Z,5652.00
2018-01-21T11:45:06.759Z,5768.00
2018-01-21T11:46:06.721Z,5648.00
2018-01-21T11:47:10.740Z,5652.00
2018-01-21T11:48:06.666Z,5916.00
2018-01-21T11:49:06.865Z,5772.00
2018-01-21T11:50:06.610Z,5416.00
2018-01-21T11:51:06.579Z,5084.00
2018-01-21T11:52:06.550Z,4828.00
2018-01-21T11:53:06.520Z,5008.00
2018-01-21T11:54:06.487Z,4908.00
2018-01-21T11:55:06.458Z,4924.00
2018-01-21T11:56:06.426Z,4988.00
2018-01-21T11:57:06.395Z,5116.00
2018-01-21T11:58:06.404Z,5228.00
2018-01-21T11:59:06.343Z,5588.00
2018-01-21T12:00:06.313Z,5844.00
2018-01-21T12:01:06.277Z,5884.00
2018-01-21T12:02:06.246Z,5996.00
2018-01-21T12:03:06.217Z,6060.00
2018-01-21T12:04:06.196Z,6008.00
2018-01-21T12:05:06.160Z,6092.00
2018-01-21T12:06:06.129Z,5828.00
2018-01-21T12:07:06.104Z,5524.00
2018-01-21T12:08:06.071Z,5284.00
2018-01-21T12:09:06.041Z,5088.00
2018-01-21T12:10:06.013Z,5308.00
2018-01-21T12:11:05.985Z,5720.00
2018-01-21T12:12:05.949Z,5124.00
2018-01-21T12:13:05.922Z,5224.00
2018-01-21T12:14:05.893Z,5320.00
2018-01-21T12:15:05.866Z,5380.00
2018-01-21T12:16:05.835Z,5352.00
2018-01-21T12:17:05.805Z,5472.00
2018-01-21T12:18:05.783Z,8028.00
2018-01-21T12:19:05.747Z,5648.00
2018-01-21T12:20:05.721Z,7632.00
2018-01-21T12:21:05.692Z,5792.00
2018-01-21T12:22:05.664Z,5880.00
2018-01-21T12:23:05.636Z,6084.00
2018-01-21T12:24:05.601Z,6076.00
2018-01-21T12:25:05.586Z,6064.00
2018-01-21T12:26:05.546Z,6428.00
2018-01-21T12:27:05.513Z,6316.00
2018-01-21T12:28:05.482Z,6284.00
2018-01-21T12:29:05.451Z,6468.00
2018-01-21T12:30:05.422Z,8212.00
2018-01-21T12:31:05.393Z,6600.00
2018-01-21T12:32:05.371Z,8720.00
2018-01-21T12:33:05.340Z,7464.00
2018-01-21T12:34:05.312Z,8256.00
2018-01-21T12:35:05.285Z,7168.00
2018-01-21T12:36:05.298Z,7744.00
2018-01-21T12:37:05.223Z,8980.00
2018-01-21T12:38:05.195Z,7664.00
2018-01-21T12:39:05.191Z,9868.00
2018-01-21T12:40:05.138Z,9900.00
2018-01-21T12:41:05.113Z,7120.00
2018-01-21T12:42:05.126Z,7556.00
2018-01-21T12:43:05.090Z,8272.00
2018-01-21T12:44:05.036Z,7504.00
2018-01-21T12:45:05.014Z,10100.00
2018-01-21T12:46:04.980Z,9796.00
2018-01-21T12:47:07.916Z,11120.00
2018-01-21T12:48:04.944Z,11144.00
2018-01-21T12:49:04.901Z,11640.00
2018-01-21T12:50:04.868Z,9668.00
2018-01-21T12:51:04.862Z,10072.00
2018-01-21T12:52:04.814Z,7604.00
2018-01-21T12:53:04.783Z,9984.00
2018-01-21T12:54:04.781Z,9232.00
2018-01-21T12:55:04.732Z,6852.00
2018-01-21T12:56:04.710Z,8784.00
2018-01-21T12:57:04.684Z,7536.00
2018-01-21T12:58:04.655Z,6648.00
2018-01-21T12:59:04.702Z,7108.00
2018-01-21T13:00:04.650Z,8192.00
2018-01-21T13:01:04.582Z,6740.00
2018-01-21T13:02:04.556Z,5540.00
2018-01-21T13:03:04.530Z,4980.00
2018-01-21T13:04:04.510Z,4912.00
2018-01-21T13:05:04.517Z,5188.00